sensor_id;sensor_type;location;lat;lon;timestamp;P1;durP1;ratioP1;P2;durP2;ratioP2
27491;SDS011;14927;51.210;6.838;2023-12-22T00:01:44;6.07;;;0.98;;
27491;SDS011;14927;51.210;6.838;2023-12-22T00:04:29;6.10;;;1.48;;
27491;SDS011;14927;51.210;6.838;2023-12-22T00:07:13;5.40;;;1.10;;
27491;SDS011;14927;51.210;6.838;2023-12-22T00:09:58;6.25;;;1.13;;
27491;SDS011;14927;51.210;6.838;2023-12-22T00:12:43;4.78;;;0.80;;
27491;SDS011;14927;51.210;6.838;2023-12-22T00:15:27;5.40;;;0.93;;
27491;SDS011;14927;51.210;6.838;2023-12-22T00:18:12;5.05;;;0.93;;
27491;SDS011;14927;51.210;6.838;2023-12-22T00:20:56;4.93;;;1.20;;
27491;SDS011;14927;51.210;6.838;2023-12-22T00:23:41;6.75;;;1.00;;
27491;SDS011;14927;51.210;6.838;2023-12-22T00:26:25;4.35;;;0.82;;
27491;SDS011;14927;51.210;6.838;2023-12-22T00:29:10;3.80;;;1.30;;
27491;SDS011;14927;51.210;6.838;2023-12-22T00:31:55;5.43;;;0.90;;
27491;SDS011;14927;51.210;6.838;2023-12-22T00:34:39;4.13;;;0.90;;
27491;SDS011;14927;51.210;6.838;2023-12-22T00:37:24;2.80;;;0.90;;
27491;SDS011;14927;51.210;6.838;2023-12-22T00:40:09;9.25;;;1.10;;
27491;SDS011;14927;51.210;6.838;2023-12-22T00:42:54;9.27;;;1.33;;
27491;SDS011;14927;51.210;6.838;2023-12-22T00:45:38;5.72;;;1.20;;
27491;SDS011;14927;51.210;6.838;2023-12-22T00:48:23;6.05;;;1.42;;
27491;SDS011;14927;51.210;6.838;2023-12-22T00:51:07;8.65;;;1.38;;
27491;SDS011;14927;51.210;6.838;2023-12-22T00:53:52;8.65;;;1.13;;
27491;SDS011;14927;51.210;6.838;2023-12-22T00:56:36;7.95;;;1.35;;
27491;SDS011;14927;51.210;6.838;2023-12-22T00:59:21;11.90;;;1.70;;
27491;SDS011;14927;51.210;6.838;2023-12-22T01:02:06;7.18;;;1.10;;
27491;SDS011;14927;51.210;6.838;2023-12-22T01:04:51;7.72;;;1.75;;
27491;SDS011;14927;51.210;6.838;2023-12-22T01:07:36;8.52;;;1.40;;
27491;SDS011;14927;51.210;6.838;2023-12-22T01:10:21;5.85;;;0.90;;
27491;SDS011;14927;51.210;6.838;2023-12-22T01:13:05;8.45;;;1.05;;
27491;SDS011;14927;51.210;6.838;2023-12-22T01:15:50;7.55;;;1.30;;
27491;SDS011;14927;51.210;6.838;2023-12-22T01:18:35;9.07;;;1.20;;
27491;SDS011;14927;51.210;6.838;2023-12-22T01:21:20;8.98;;;1.83;;
27491;SDS011;14927;51.210;6.838;2023-12-22T01:24:04;9.13;;;1.60;;
27491;SDS011;14927;51.210;6.838;2023-12-22T01:26:49;10.77;;;1.55;;
27491;SDS011;14927;51.210;6.838;2023-12-22T01:29:33;11.32;;;1.52;;
27491;SDS011;14927;51.210;6.838;2023-12-22T01:32:18;9.80;;;1.58;;
27491;SDS011;14927;51.210;6.838;2023-12-22T01:35:03;9.05;;;1.08;;
27491;SDS011;14927;51.210;6.838;2023-12-22T01:37:53;8.52;;;1.33;;
27491;SDS011;14927;51.210;6.838;2023-12-22T01:40:38;6.13;;;1.20;;
27491;SDS011;14927;51.210;6.838;2023-12-22T01:43:22;7.35;;;1.17;;
27491;SDS011;14927;51.210;6.838;2023-12-22T01:46:07;11.57;;;1.98;;
27491;SDS011;14927;51.210;6.838;2023-12-22T01:48:53;7.88;;;1.50;;
27491;SDS011;14927;51.210;6.838;2023-12-22T01:51:38;8.77;;;1.90;;
27491;SDS011;14927;51.210;6.838;2023-12-22T01:54:24;6.72;;;1.38;;
27491;SDS011;14927;51.210;6.838;2023-12-22T01:57:09;9.05;;;1.80;;
27491;SDS011;14927;51.210;6.838;2023-12-22T01:59:57;11.20;;;1.40;;
27491;SDS011;14927;51.210;6.838;2023-12-22T02:02:42;9.30;;;1.92;;
27491;SDS011;14927;51.210;6.838;2023-12-22T02:05:26;9.98;;;1.67;;
27491;SDS011;14927;51.210;6.838;2023-12-22T02:08:13;9.07;;;1.40;;
27491;SDS011;14927;51.210;6.838;2023-12-22T02:11:02;9.05;;;1.65;;
27491;SDS011;14927;51.210;6.838;2023-12-22T02:13:47;9.85;;;1.77;;
27491;SDS011;14927;51.210;6.838;2023-12-22T02:19:40;13.20;;;2.15;;
27491;SDS011;14927;51.210;6.838;2023-12-22T02:22:28;13.43;;;1.55;;
27491;SDS011;14927;51.210;6.838;2023-12-22T02:25:13;7.75;;;1.25;;
27491;SDS011;14927;51.210;6.838;2023-12-22T02:27:58;12.05;;;1.90;;
27491;SDS011;14927;51.210;6.838;2023-12-22T02:33:44;3.92;;;1.00;;
27491;SDS011;14927;51.210;6.838;2023-12-22T02:36:31;6.22;;;1.08;;
27491;SDS011;14927;51.210;6.838;2023-12-22T02:39:20;7.88;;;1.38;;
27491;SDS011;14927;51.210;6.838;2023-12-22T02:42:04;6.30;;;0.98;;
27491;SDS011;14927;51.210;6.838;2023-12-22T02:44:50;3.50;;;0.73;;
27491;SDS011;14927;51.210;6.838;2023-12-22T02:47:35;3.25;;;1.00;;
27491;SDS011;14927;51.210;6.838;2023-12-22T02:50:19;4.50;;;0.70;;
27491;SDS011;14927;51.210;6.838;2023-12-22T02:53:04;4.32;;;0.85;;
27491;SDS011;14927;51.210;6.838;2023-12-22T02:55:48;4.57;;;0.80;;
27491;SDS011;14927;51.210;6.838;2023-12-22T02:58:33;3.35;;;0.70;;
27491;SDS011;14927;51.210;6.838;2023-12-22T03:01:17;4.68;;;0.73;;
27491;SDS011;14927;51.210;6.838;2023-12-22T03:04:02;4.10;;;0.70;;
27491;SDS011;14927;51.210;6.838;2023-12-22T03:06:47;5.65;;;0.80;;
27491;SDS011;14927;51.210;6.838;2023-12-22T03:09:31;5.45;;;0.80;;
27491;SDS011;14927;51.210;6.838;2023-12-22T03:12:17;3.63;;;1.23;;
27491;SDS011;14927;51.210;6.838;2023-12-22T03:15:02;6.20;;;0.80;;
27491;SDS011;14927;51.210;6.838;2023-12-22T03:17:48;2.15;;;0.55;;
27491;SDS011;14927;51.210;6.838;2023-12-22T03:20:32;2.63;;;0.50;;
27491;SDS011;14927;51.210;6.838;2023-12-22T03:23:17;2.10;;;0.70;;
27491;SDS011;14927;51.210;6.838;2023-12-22T03:26:05;3.85;;;0.65;;
27491;SDS011;14927;51.210;6.838;2023-12-22T03:28:49;4.75;;;0.80;;
27491;SDS011;14927;51.210;6.838;2023-12-22T03:31:34;4.32;;;0.70;;
27491;SDS011;14927;51.210;6.838;2023-12-22T03:34:18;4.30;;;1.00;;
27491;SDS011;14927;51.210;6.838;2023-12-22T03:37:06;3.85;;;1.05;;
27491;SDS011;14927;51.210;6.838;2023-12-22T03:39:50;4.30;;;0.88;;
27491;SDS011;14927;51.210;6.838;2023-12-22T03:42:35;5.55;;;0.50;;
27491;SDS011;14927;51.210;6.838;2023-12-22T03:45:19;3.67;;;0.63;;
27491;SDS011;14927;51.210;6.838;2023-12-22T03:48:04;5.45;;;0.88;;
27491;SDS011;14927;51.210;6.838;2023-12-22T03:50:49;3.95;;;0.77;;
27491;SDS011;14927;51.210;6.838;2023-12-22T03:53:34;5.78;;;1.10;;
27491;SDS011;14927;51.210;6.838;2023-12-22T03:56:18;3.65;;;0.65;;
27491;SDS011;14927;51.210;6.838;2023-12-22T03:59:03;3.25;;;1.08;;
27491;SDS011;14927;51.210;6.838;2023-12-22T04:01:51;6.43;;;1.05;;
27491;SDS011;14927;51.210;6.838;2023-12-22T04:04:39;5.18;;;1.30;;
27491;SDS011;14927;51.210;6.838;2023-12-22T04:07:24;4.25;;;1.00;;
27491;SDS011;14927;51.210;6.838;2023-12-22T04:10:08;2.75;;;1.02;;
27491;SDS011;14927;51.210;6.838;2023-12-22T04:12:53;6.97;;;1.42;;
27491;SDS011;14927;51.210;6.838;2023-12-22T04:15:38;2.22;;;1.00;;
27491;SDS011;14927;51.210;6.838;2023-12-22T04:18:22;8.23;;;1.83;;
27491;SDS011;14927;51.210;6.838;2023-12-22T04:21:07;7.60;;;1.63;;
27491;SDS011;14927;51.210;6.838;2023-12-22T04:23:52;9.32;;;1.63;;
27491;SDS011;14927;51.210;6.838;2023-12-22T04:26:36;13.18;;;2.15;;
27491;SDS011;14927;51.210;6.838;2023-12-22T04:29:21;14.48;;;2.83;;
27491;SDS011;14927;51.210;6.838;2023-12-22T04:32:06;22.38;;;3.55;;
27491;SDS011;14927;51.210;6.838;2023-12-22T04:34:53;15.55;;;2.20;;
27491;SDS011;14927;51.210;6.838;2023-12-22T04:37:40;14.93;;;2.50;;
27491;SDS011;14927;51.210;6.838;2023-12-22T04:40:24;10.52;;;1.98;;
27491;SDS011;14927;51.210;6.838;2023-12-22T04:43:09;14.50;;;2.40;;
27491;SDS011;14927;51.210;6.838;2023-12-22T04:45:54;14.43;;;2.72;;
27491;SDS011;14927;51.210;6.838;2023-12-22T04:48:38;18.13;;;2.75;;
27491;SDS011;14927;51.210;6.838;2023-12-22T04:51:23;17.65;;;3.00;;
27491;SDS011;14927;51.210;6.838;2023-12-22T04:54:08;15.23;;;2.65;;
27491;SDS011;14927;51.210;6.838;2023-12-22T04:56:52;18.15;;;2.92;;
27491;SDS011;14927;51.210;6.838;2023-12-22T04:59:37;16.08;;;2.85;;
27491;SDS011;14927;51.210;6.838;2023-12-22T05:02:22;14.35;;;2.97;;
27491;SDS011;14927;51.210;6.838;2023-12-22T05:05:06;15.95;;;2.55;;
27491;SDS011;14927;51.210;6.838;2023-12-22T05:07:52;17.92;;;2.28;;
27491;SDS011;14927;51.210;6.838;2023-12-22T05:10:36;20.33;;;3.30;;
27491;SDS011;14927;51.210;6.838;2023-12-22T05:13:21;16.35;;;2.72;;
27491;SDS011;14927;51.210;6.838;2023-12-22T05:16:05;17.48;;;2.80;;
27491;SDS011;14927;51.210;6.838;2023-12-22T05:18:50;17.75;;;2.45;;
27491;SDS011;14927;51.210;6.838;2023-12-22T05:21:35;19.05;;;2.88;;
27491;SDS011;14927;51.210;6.838;2023-12-22T05:24:19;17.65;;;2.95;;
27491;SDS011;14927;51.210;6.838;2023-12-22T05:27:04;16.38;;;2.63;;
27491;SDS011;14927;51.210;6.838;2023-12-22T05:29:48;19.35;;;3.20;;
27491;SDS011;14927;51.210;6.838;2023-12-22T05:32:33;22.10;;;2.97;;
27491;SDS011;14927;51.210;6.838;2023-12-22T05:35:17;12.48;;;2.58;;
27491;SDS011;14927;51.210;6.838;2023-12-22T05:38:02;13.30;;;2.17;;
27491;SDS011;14927;51.210;6.838;2023-12-22T05:40:47;16.00;;;2.53;;
27491;SDS011;14927;51.210;6.838;2023-12-22T05:43:32;19.02;;;3.00;;
27491;SDS011;14927;51.210;6.838;2023-12-22T05:46:17;13.77;;;2.28;;
27491;SDS011;14927;51.210;6.838;2023-12-22T05:49:01;13.05;;;2.80;;
27491;SDS011;14927;51.210;6.838;2023-12-22T05:51:46;18.98;;;2.65;;
27491;SDS011;14927;51.210;6.838;2023-12-22T05:54:31;17.60;;;2.53;;
27491;SDS011;14927;51.210;6.838;2023-12-22T05:57:16;18.85;;;2.67;;
27491;SDS011;14927;51.210;6.838;2023-12-22T06:00:00;14.85;;;2.58;;
27491;SDS011;14927;51.210;6.838;2023-12-22T06:02:48;18.27;;;2.58;;
27491;SDS011;14927;51.210;6.838;2023-12-22T06:05:33;13.55;;;2.63;;
27491;SDS011;14927;51.210;6.838;2023-12-22T06:08:17;15.45;;;2.47;;
27491;SDS011;14927;51.210;6.838;2023-12-22T06:11:02;10.13;;;2.47;;
27491;SDS011;14927;51.210;6.838;2023-12-22T06:13:47;15.98;;;2.60;;
27491;SDS011;14927;51.210;6.838;2023-12-22T06:16:31;15.57;;;2.70;;
27491;SDS011;14927;51.210;6.838;2023-12-22T06:19:16;16.77;;;3.22;;
27491;SDS011;14927;51.210;6.838;2023-12-22T06:22:01;16.33;;;2.40;;
27491;SDS011;14927;51.210;6.838;2023-12-22T06:24:45;14.05;;;2.53;;
27491;SDS011;14927;51.210;6.838;2023-12-22T06:27:30;17.48;;;2.67;;
27491;SDS011;14927;51.210;6.838;2023-12-22T06:30:14;16.20;;;2.92;;
27491;SDS011;14927;51.210;6.838;2023-12-22T06:32:59;18.85;;;2.20;;
27491;SDS011;14927;51.210;6.838;2023-12-22T06:35:44;17.55;;;3.45;;
27491;SDS011;14927;51.210;6.838;2023-12-22T06:38:30;15.45;;;3.78;;
27491;SDS011;14927;51.210;6.838;2023-12-22T06:41:33;13.95;;;2.67;;
27491;SDS011;14927;51.210;6.838;2023-12-22T06:44:17;18.33;;;3.35;;
27491;SDS011;14927;51.210;6.838;2023-12-22T06:47:02;16.70;;;2.65;;
27491;SDS011;14927;51.210;6.838;2023-12-22T06:49:47;19.63;;;2.22;;
27491;SDS011;14927;51.210;6.838;2023-12-22T06:52:31;15.63;;;2.60;;
27491;SDS011;14927;51.210;6.838;2023-12-22T06:55:16;14.60;;;2.38;;
27491;SDS011;14927;51.210;6.838;2023-12-22T06:58:04;19.30;;;2.85;;
27491;SDS011;14927;51.210;6.838;2023-12-22T07:00:51;13.68;;;2.33;;
27491;SDS011;14927;51.210;6.838;2023-12-22T07:03:39;17.20;;;2.63;;
27491;SDS011;14927;51.210;6.838;2023-12-22T07:06:24;23.55;;;2.80;;
27491;SDS011;14927;51.210;6.838;2023-12-22T07:11:59;11.05;;;2.70;;
27491;SDS011;14927;51.210;6.838;2023-12-22T07:14:45;19.42;;;2.33;;
27491;SDS011;14927;51.210;6.838;2023-12-22T07:17:29;12.85;;;2.22;;
27491;SDS011;14927;51.210;6.838;2023-12-22T07:20:15;9.52;;;1.98;;
27491;SDS011;14927;51.210;6.838;2023-12-22T07:22:59;16.27;;;2.17;;
27491;SDS011;14927;51.210;6.838;2023-12-22T07:25:44;11.93;;;2.33;;
27491;SDS011;14927;51.210;6.838;2023-12-22T07:28:29;13.00;;;2.38;;
27491;SDS011;14927;51.210;6.838;2023-12-22T07:31:14;12.73;;;2.72;;
27491;SDS011;14927;51.210;6.838;2023-12-22T07:33:58;12.00;;;2.55;;
27491;SDS011;14927;51.210;6.838;2023-12-22T07:36:43;10.65;;;1.70;;
27491;SDS011;14927;51.210;6.838;2023-12-22T07:39:28;10.48;;;3.15;;
27491;SDS011;14927;51.210;6.838;2023-12-22T07:42:12;10.35;;;2.35;;
27491;SDS011;14927;51.210;6.838;2023-12-22T07:44:57;7.55;;;1.75;;
27491;SDS011;14927;51.210;6.838;2023-12-22T07:47:42;6.85;;;1.50;;
27491;SDS011;14927;51.210;6.838;2023-12-22T07:50:26;6.07;;;1.50;;
27491;SDS011;14927;51.210;6.838;2023-12-22T07:53:11;10.20;;;1.83;;
27491;SDS011;14927;51.210;6.838;2023-12-22T07:55:56;9.23;;;1.58;;
27491;SDS011;14927;51.210;6.838;2023-12-22T07:58:43;9.65;;;2.00;;
27491;SDS011;14927;51.210;6.838;2023-12-22T08:01:27;13.90;;;2.88;;
27491;SDS011;14927;51.210;6.838;2023-12-22T08:04:12;10.98;;;2.70;;
27491;SDS011;14927;51.210;6.838;2023-12-22T08:06:56;19.38;;;2.97;;
27491;SDS011;14927;51.210;6.838;2023-12-22T08:09:43;17.20;;;3.63;;
27491;SDS011;14927;51.210;6.838;2023-12-22T08:12:30;19.95;;;3.58;;
27491;SDS011;14927;51.210;6.838;2023-12-22T08:15:16;21.65;;;3.72;;
27491;SDS011;14927;51.210;6.838;2023-12-22T08:18:00;16.65;;;3.40;;
27491;SDS011;14927;51.210;6.838;2023-12-22T08:20:53;19.38;;;4.63;;
27491;SDS011;14927;51.210;6.838;2023-12-22T08:23:43;26.60;;;6.00;;
27491;SDS011;14927;51.210;6.838;2023-12-22T08:26:28;20.48;;;4.72;;
27491;SDS011;14927;51.210;6.838;2023-12-22T08:29:13;27.33;;;5.65;;
27491;SDS011;14927;51.210;6.838;2023-12-22T08:31:58;28.70;;;7.18;;
27491;SDS011;14927;51.210;6.838;2023-12-22T08:34:44;32.95;;;8.35;;
27491;SDS011;14927;51.210;6.838;2023-12-22T08:37:29;35.40;;;9.38;;
27491;SDS011;14927;51.210;6.838;2023-12-22T08:40:16;36.92;;;8.95;;
27491;SDS011;14927;51.210;6.838;2023-12-22T08:43:01;39.47;;;9.45;;
27491;SDS011;14927;51.210;6.838;2023-12-22T08:45:47;31.67;;;7.32;;
27491;SDS011;14927;51.210;6.838;2023-12-22T08:48:31;28.52;;;6.40;;
27491;SDS011;14927;51.210;6.838;2023-12-22T08:51:16;29.23;;;6.03;;
27491;SDS011;14927;51.210;6.838;2023-12-22T08:54:01;28.75;;;5.80;;
27491;SDS011;14927;51.210;6.838;2023-12-22T08:56:45;32.00;;;5.43;;
27491;SDS011;14927;51.210;6.838;2023-12-22T08:59:30;36.55;;;6.43;;
27491;SDS011;14927;51.210;6.838;2023-12-22T09:02:15;27.30;;;5.63;;
27491;SDS011;14927;51.210;6.838;2023-12-22T09:04:59;33.25;;;6.28;;
27491;SDS011;14927;51.210;6.838;2023-12-22T09:07:44;32.85;;;5.38;;
27491;SDS011;14927;51.210;6.838;2023-12-22T09:10:30;27.60;;;5.82;;
27491;SDS011;14927;51.210;6.838;2023-12-22T09:13:14;29.42;;;5.38;;
27491;SDS011;14927;51.210;6.838;2023-12-22T09:15:59;31.65;;;6.05;;
27491;SDS011;14927;51.210;6.838;2023-12-22T09:18:43;35.90;;;6.32;;
27491;SDS011;14927;51.210;6.838;2023-12-22T09:21:28;25.67;;;5.65;;
27491;SDS011;14927;51.210;6.838;2023-12-22T09:24:13;35.05;;;4.97;;
27491;SDS011;14927;51.210;6.838;2023-12-22T09:27:00;35.70;;;7.15;;
27491;SDS011;14927;51.210;6.838;2023-12-22T09:29:46;24.70;;;5.13;;
27491;SDS011;14927;51.210;6.838;2023-12-22T09:32:33;25.38;;;5.15;;
27491;SDS011;14927;51.210;6.838;2023-12-22T09:35:18;33.88;;;5.45;;
27491;SDS011;14927;51.210;6.838;2023-12-22T09:38:03;32.72;;;6.10;;
27491;SDS011;14927;51.210;6.838;2023-12-22T09:40:48;32.05;;;6.05;;
27491;SDS011;14927;51.210;6.838;2023-12-22T09:43:33;29.50;;;5.82;;
27491;SDS011;14927;51.210;6.838;2023-12-22T09:46:22;18.13;;;4.93;;
27491;SDS011;14927;51.210;6.838;2023-12-22T09:49:10;35.00;;;5.75;;
27491;SDS011;14927;51.210;6.838;2023-12-22T09:51:55;25.77;;;5.25;;
27491;SDS011;14927;51.210;6.838;2023-12-22T09:54:47;26.05;;;5.10;;
27491;SDS011;14927;51.210;6.838;2023-12-22T09:57:32;24.63;;;4.93;;
27491;SDS011;14927;51.210;6.838;2023-12-22T10:00:17;27.02;;;5.30;;
27491;SDS011;14927;51.210;6.838;2023-12-22T10:03:04;37.10;;;6.03;;
27491;SDS011;14927;51.210;6.838;2023-12-22T10:05:50;31.13;;;6.05;;
27491;SDS011;14927;51.210;6.838;2023-12-22T10:08:35;24.70;;;5.63;;
27491;SDS011;14927;51.210;6.838;2023-12-22T10:11:21;28.10;;;5.50;;
27491;SDS011;14927;51.210;6.838;2023-12-22T10:14:07;22.63;;;4.57;;
27491;SDS011;14927;51.210;6.838;2023-12-22T10:16:55;23.20;;;4.28;;
27491;SDS011;14927;51.210;6.838;2023-12-22T10:19:45;15.23;;;3.80;;
27491;SDS011;14927;51.210;6.838;2023-12-22T10:22:32;23.65;;;4.55;;
27491;SDS011;14927;51.210;6.838;2023-12-22T10:25:20;16.98;;;4.00;;
27491;SDS011;14927;51.210;6.838;2023-12-22T10:28:13;16.17;;;3.47;;
27491;SDS011;14927;51.210;6.838;2023-12-22T10:30:58;18.90;;;3.92;;
27491;SDS011;14927;51.210;6.838;2023-12-22T10:33:47;20.05;;;3.63;;
27491;SDS011;14927;51.210;6.838;2023-12-22T10:36:31;12.73;;;3.20;;
27491;SDS011;14927;51.210;6.838;2023-12-22T10:39:16;17.42;;;3.00;;
27491;SDS011;14927;51.210;6.838;2023-12-22T10:42:05;14.18;;;2.60;;
27491;SDS011;14927;51.210;6.838;2023-12-22T10:44:50;12.88;;;2.63;;
27491;SDS011;14927;51.210;6.838;2023-12-22T10:47:34;12.27;;;2.97;;
27491;SDS011;14927;51.210;6.838;2023-12-22T10:50:19;13.75;;;2.78;;
27491;SDS011;14927;51.210;6.838;2023-12-22T10:53:05;13.77;;;2.95;;
27491;SDS011;14927;51.210;6.838;2023-12-22T10:55:50;10.80;;;2.70;;
27491;SDS011;14927;51.210;6.838;2023-12-22T10:58:35;11.85;;;2.50;;
27491;SDS011;14927;51.210;6.838;2023-12-22T11:01:21;10.18;;;2.60;;
27491;SDS011;14927;51.210;6.838;2023-12-22T11:04:07;10.80;;;2.22;;
27491;SDS011;14927;51.210;6.838;2023-12-22T11:06:57;11.18;;;2.05;;
27491;SDS011;14927;51.210;6.838;2023-12-22T11:09:43;9.95;;;2.10;;
27491;SDS011;14927;51.210;6.838;2023-12-22T11:12:35;8.88;;;1.80;;
27491;SDS011;14927;51.210;6.838;2023-12-22T11:15:20;7.85;;;1.80;;
27491;SDS011;14927;51.210;6.838;2023-12-22T11:18:07;5.45;;;1.48;;
27491;SDS011;14927;51.210;6.838;2023-12-22T11:23:32;4.72;;;1.42;;
27491;SDS011;14927;51.210;6.838;2023-12-22T11:26:37;6.35;;;1.85;;
27491;SDS011;14927;51.210;6.838;2023-12-22T11:29:38;9.05;;;2.08;;
27491;SDS011;14927;51.210;6.838;2023-12-22T11:32:58;4.28;;;1.27;;
27491;SDS011;14927;51.210;6.838;2023-12-22T11:35:47;5.53;;;1.00;;
27491;SDS011;14927;51.210;6.838;2023-12-22T11:38:33;9.40;;;2.15;;
27491;SDS011;14927;51.210;6.838;2023-12-22T11:41:21;6.50;;;1.45;;
27491;SDS011;14927;51.210;6.838;2023-12-22T11:44:11;7.45;;;2.08;;
27491;SDS011;14927;51.210;6.838;2023-12-22T11:47:08;5.72;;;1.30;;
27491;SDS011;14927;51.210;6.838;2023-12-22T11:49:54;5.25;;;1.35;;
27491;SDS011;14927;51.210;6.838;2023-12-22T11:52:40;3.42;;;1.40;;
27491;SDS011;14927;51.210;6.838;2023-12-22T11:58:43;5.32;;;1.23;;
27491;SDS011;14927;51.210;6.838;2023-12-22T12:01:38;4.68;;;1.15;;
27491;SDS011;14927;51.210;6.838;2023-12-22T12:04:23;2.25;;;0.95;;
27491;SDS011;14927;51.210;6.838;2023-12-22T12:13:33;4.22;;;0.80;;
27491;SDS011;14927;51.210;6.838;2023-12-22T12:16:18;7.85;;;0.90;;
27491;SDS011;14927;51.210;6.838;2023-12-22T12:19:07;6.32;;;1.17;;
27491;SDS011;14927;51.210;6.838;2023-12-22T12:21:53;5.20;;;1.20;;
27491;SDS011;14927;51.210;6.838;2023-12-22T12:24:38;7.25;;;1.00;;
27491;SDS011;14927;51.210;6.838;2023-12-22T12:27:25;1.98;;;0.63;;
27491;SDS011;14927;51.210;6.838;2023-12-22T12:30:13;3.13;;;0.93;;
27491;SDS011;14927;51.210;6.838;2023-12-22T12:32:58;3.13;;;0.80;;
27491;SDS011;14927;51.210;6.838;2023-12-22T12:35:50;5.53;;;1.08;;
27491;SDS011;14927;51.210;6.838;2023-12-22T12:38:54;4.40;;;0.95;;
27491;SDS011;14927;51.210;6.838;2023-12-22T12:41:53;4.95;;;1.15;;
27491;SDS011;14927;51.210;6.838;2023-12-22T12:44:38;3.55;;;0.82;;
27491;SDS011;14927;51.210;6.838;2023-12-22T12:47:23;5.72;;;1.20;;
27491;SDS011;14927;51.210;6.838;2023-12-22T12:50:08;4.00;;;0.90;;
27491;SDS011;14927;51.210;6.838;2023-12-22T12:52:52;5.78;;;1.58;;
27491;SDS011;14927;51.210;6.838;2023-12-22T12:55:37;3.65;;;1.00;;
27491;SDS011;14927;51.210;6.838;2023-12-22T12:58:26;3.60;;;0.88;;
27491;SDS011;14927;51.210;6.838;2023-12-22T13:01:14;6.47;;;1.10;;
27491;SDS011;14927;51.210;6.838;2023-12-22T13:04:00;5.45;;;1.02;;
27491;SDS011;14927;51.210;6.838;2023-12-22T13:06:48;5.00;;;0.77;;
27491;SDS011;14927;51.210;6.838;2023-12-22T13:09:34;5.22;;;1.02;;
27491;SDS011;14927;51.210;6.838;2023-12-22T13:12:19;5.82;;;1.23;;
27491;SDS011;14927;51.210;6.838;2023-12-22T13:15:03;2.13;;;0.60;;
27491;SDS011;14927;51.210;6.838;2023-12-22T13:17:48;5.05;;;0.95;;
27491;SDS011;14927;51.210;6.838;2023-12-22T13:20:33;5.65;;;0.90;;
27491;SDS011;14927;51.210;6.838;2023-12-22T13:23:19;4.63;;;1.08;;
27491;SDS011;14927;51.210;6.838;2023-12-22T13:26:03;8.35;;;1.30;;
27491;SDS011;14927;51.210;6.838;2023-12-22T13:28:48;5.53;;;0.70;;
27491;SDS011;14927;51.210;6.838;2023-12-22T13:31:33;5.05;;;0.88;;
27491;SDS011;14927;51.210;6.838;2023-12-22T13:34:20;7.90;;;1.13;;
27491;SDS011;14927;51.210;6.838;2023-12-22T13:37:05;5.10;;;1.02;;
27491;SDS011;14927;51.210;6.838;2023-12-22T13:39:49;3.20;;;0.88;;
27491;SDS011;14927;51.210;6.838;2023-12-22T13:42:35;4.72;;;0.98;;
27491;SDS011;14927;51.210;6.838;2023-12-22T13:45:21;7.07;;;1.17;;
27491;SDS011;14927;51.210;6.838;2023-12-22T13:48:06;8.65;;;1.63;;
27491;SDS011;14927;51.210;6.838;2023-12-22T13:50:55;6.95;;;0.93;;
27491;SDS011;14927;51.210;6.838;2023-12-22T13:53:49;2.53;;;0.63;;
27491;SDS011;14927;51.210;6.838;2023-12-22T13:56:34;8.98;;;1.42;;
27491;SDS011;14927;51.210;6.838;2023-12-22T13:59:30;5.70;;;1.15;;
27491;SDS011;14927;51.210;6.838;2023-12-22T14:02:19;5.60;;;1.08;;
27491;SDS011;14927;51.210;6.838;2023-12-22T14:05:07;5.63;;;1.23;;
27491;SDS011;14927;51.210;6.838;2023-12-22T14:07:52;2.70;;;0.85;;
27491;SDS011;14927;51.210;6.838;2023-12-22T14:10:36;4.55;;;1.13;;
27491;SDS011;14927;51.210;6.838;2023-12-22T14:13:21;10.48;;;1.13;;
27491;SDS011;14927;51.210;6.838;2023-12-22T14:16:09;5.28;;;0.98;;
27491;SDS011;14927;51.210;6.838;2023-12-22T14:18:54;6.78;;;1.20;;
27491;SDS011;14927;51.210;6.838;2023-12-22T14:21:38;7.65;;;1.40;;
27491;SDS011;14927;51.210;6.838;2023-12-22T14:24:23;7.18;;;1.40;;
27491;SDS011;14927;51.210;6.838;2023-12-22T14:27:44;3.78;;;1.00;;
27491;SDS011;14927;51.210;6.838;2023-12-22T14:30:29;4.95;;;0.90;;
27491;SDS011;14927;51.210;6.838;2023-12-22T14:33:14;5.13;;;1.00;;
27491;SDS011;14927;51.210;6.838;2023-12-22T14:35:59;4.00;;;1.00;;
27491;SDS011;14927;51.210;6.838;2023-12-22T14:38:43;3.97;;;0.82;;
27491;SDS011;14927;51.210;6.838;2023-12-22T14:41:28;5.22;;;1.08;;
27491;SDS011;14927;51.210;6.838;2023-12-22T14:44:13;4.85;;;1.40;;
27491;SDS011;14927;51.210;6.838;2023-12-22T14:46:57;8.50;;;1.35;;
27491;SDS011;14927;51.210;6.838;2023-12-22T14:49:45;7.55;;;1.20;;
27491;SDS011;14927;51.210;6.838;2023-12-22T14:52:33;5.20;;;1.10;;
27491;SDS011;14927;51.210;6.838;2023-12-22T14:55:17;8.13;;;1.30;;
27491;SDS011;14927;51.210;6.838;2023-12-22T14:58:02;6.72;;;1.17;;
27491;SDS011;14927;51.210;6.838;2023-12-22T15:00:47;5.75;;;1.30;;
27491;SDS011;14927;51.210;6.838;2023-12-22T15:03:31;5.03;;;1.27;;
27491;SDS011;14927;51.210;6.838;2023-12-22T15:06:19;4.32;;;1.20;;
27491;SDS011;14927;51.210;6.838;2023-12-22T15:09:04;9.93;;;1.20;;
27491;SDS011;14927;51.210;6.838;2023-12-22T15:11:48;6.35;;;1.05;;
27491;SDS011;14927;51.210;6.838;2023-12-22T15:14:34;3.67;;;1.05;;
27491;SDS011;14927;51.210;6.838;2023-12-22T15:17:19;6.07;;;1.65;;
27491;SDS011;14927;51.210;6.838;2023-12-22T15:22:53;8.35;;;1.73;;
27491;SDS011;14927;51.210;6.838;2023-12-22T15:25:52;7.97;;;1.20;;
27491;SDS011;14927;51.210;6.838;2023-12-22T15:28:36;5.82;;;0.90;;
27491;SDS011;14927;51.210;6.838;2023-12-22T15:31:21;5.50;;;0.82;;
27491;SDS011;14927;51.210;6.838;2023-12-22T15:34:08;7.15;;;1.20;;
27491;SDS011;14927;51.210;6.838;2023-12-22T15:36:52;7.75;;;1.25;;
27491;SDS011;14927;51.210;6.838;2023-12-22T15:39:39;5.90;;;1.50;;
27491;SDS011;14927;51.210;6.838;2023-12-22T15:42:24;13.70;;;1.25;;
27491;SDS011;14927;51.210;6.838;2023-12-22T15:45:09;4.20;;;1.08;;
27491;SDS011;14927;51.210;6.838;2023-12-22T15:47:54;6.13;;;1.30;;
27491;SDS011;14927;51.210;6.838;2023-12-22T15:50:38;4.80;;;1.33;;
27491;SDS011;14927;51.210;6.838;2023-12-22T15:53:28;7.93;;;2.00;;
27491;SDS011;14927;51.210;6.838;2023-12-22T15:56:12;7.45;;;1.05;;
27491;SDS011;14927;51.210;6.838;2023-12-22T15:58:57;4.25;;;1.02;;
27491;SDS011;14927;51.210;6.838;2023-12-22T16:01:45;5.47;;;1.27;;
27491;SDS011;14927;51.210;6.838;2023-12-22T16:04:29;4.75;;;1.20;;
27491;SDS011;14927;51.210;6.838;2023-12-22T16:07:14;6.95;;;1.35;;
27491;SDS011;14927;51.210;6.838;2023-12-22T16:09:58;9.38;;;1.65;;
27491;SDS011;14927;51.210;6.838;2023-12-22T16:12:43;8.07;;;1.45;;
27491;SDS011;14927;51.210;6.838;2023-12-22T16:15:28;6.47;;;0.93;;
27491;SDS011;14927;51.210;6.838;2023-12-22T16:18:12;4.38;;;0.77;;
27491;SDS011;14927;51.210;6.838;2023-12-22T16:20:57;5.03;;;0.93;;
27491;SDS011;14927;51.210;6.838;2023-12-22T16:23:44;3.40;;;0.88;;
27491;SDS011;14927;51.210;6.838;2023-12-22T16:26:28;2.88;;;0.98;;
27491;SDS011;14927;51.210;6.838;2023-12-22T16:29:13;2.90;;;0.82;;
27491;SDS011;14927;51.210;6.838;2023-12-22T16:31:57;3.67;;;1.10;;
27491;SDS011;14927;51.210;6.838;2023-12-22T16:34:42;5.13;;;0.90;;
27491;SDS011;14927;51.210;6.838;2023-12-22T16:37:29;4.22;;;1.10;;
27491;SDS011;14927;51.210;6.838;2023-12-22T16:40:14;6.75;;;1.30;;
27491;SDS011;14927;51.210;6.838;2023-12-22T16:43:00;8.50;;;1.45;;
27491;SDS011;14927;51.210;6.838;2023-12-22T16:45:44;6.57;;;1.15;;
27491;SDS011;14927;51.210;6.838;2023-12-22T16:48:29;7.53;;;1.83;;
27491;SDS011;14927;51.210;6.838;2023-12-22T16:51:13;10.20;;;1.73;;
27491;SDS011;14927;51.210;6.838;2023-12-22T16:53:58;11.00;;;1.63;;
27491;SDS011;14927;51.210;6.838;2023-12-22T16:56:46;8.23;;;1.75;;
27491;SDS011;14927;51.210;6.838;2023-12-22T16:59:32;7.68;;;1.65;;